createdAt,value
2019-01-30T00:02:23.698Z,19.50
2019-01-30T00:04:53.605Z,19.40
2019-01-30T00:07:23.326Z,19.40
2019-01-30T00:09:53.173Z,19.50
2019-01-30T00:12:22.990Z,19.40
2019-01-30T00:14:52.636Z,19.40
2019-01-30T00:17:22.340Z,19.40
2019-01-30T00:19:53.279Z,19.30
2019-01-30T00:22:23.132Z,19.30
2019-01-30T00:24:52.861Z,19.30
2019-01-30T00:27:22.682Z,19.30
2019-01-30T00:29:52.544Z,19.30
2019-01-30T00:32:22.265Z,19.30
2019-01-30T00:34:52.061Z,19.30
2019-01-30T00:37:21.897Z,19.30
2019-01-30T00:39:51.732Z,19.30
2019-01-30T00:42:21.566Z,19.30
2019-01-30T00:44:51.186Z,19.30
2019-01-30T00:47:21.023Z,19.30
2019-01-30T00:49:50.641Z,19.30
2019-01-30T00:52:20.411Z,19.30
2019-01-30T00:54:50.188Z,19.30
2019-01-30T00:57:19.733Z,19.20
2019-01-30T00:59:49.544Z,19.20
2019-01-30T01:02:19.572Z,19.20
2019-01-30T01:04:49.418Z,19.10
2019-01-30T01:07:19.349Z,19.20
2019-01-30T01:09:50.055Z,19.20
2019-01-30T01:12:19.713Z,19.20
2019-01-30T01:14:49.540Z,19.10
2019-01-30T01:17:19.485Z,19.10
2019-01-30T01:19:49.509Z,19.20
2019-01-30T01:22:19.457Z,19.20
2019-01-30T01:24:49.264Z,19.80
2019-01-30T01:27:18.801Z,19.20
2019-01-30T01:29:48.594Z,19.20
2019-01-30T01:32:18.593Z,19.20
2019-01-30T01:34:48.376Z,19.10
2019-01-30T01:37:18.310Z,19.20
2019-01-30T01:39:50.713Z,19.10
2019-01-30T01:42:19.509Z,19.20
2019-01-30T01:44:49.137Z,19.10
2019-01-30T01:47:18.952Z,19.10
2019-01-30T01:49:48.804Z,19.20
2019-01-30T01:52:18.516Z,19.70
2019-01-30T01:54:48.454Z,19.10
2019-01-30T01:57:19.203Z,19.10
2019-01-30T01:59:49.172Z,19.10
2019-01-30T02:02:18.962Z,19.20
2019-01-30T02:04:48.912Z,19.10
2019-01-30T02:07:18.629Z,19.10
2019-01-30T02:09:48.543Z,19.20
2019-01-30T02:12:18.373Z,19.20
2019-01-30T02:14:48.212Z,19.70
2019-01-30T02:17:18.063Z,19.20
2019-01-30T02:19:47.660Z,19.20
2019-01-30T02:22:17.559Z,19.10
2019-01-30T02:24:47.239Z,19.10
2019-01-30T02:27:17.049Z,19.10
2019-01-30T02:29:46.880Z,19.10
2019-01-30T02:32:16.819Z,19.10
2019-01-30T02:34:46.759Z,19.10
2019-01-30T02:37:16.471Z,19.10
2019-01-30T02:39:46.110Z,19.10
2019-01-30T02:42:16.020Z,19.10
2019-01-30T02:44:45.988Z,19.10
2019-01-30T02:47:15.789Z,19.00
2019-01-30T02:49:45.724Z,19.00
2019-01-30T02:52:17.369Z,19.00
2019-01-30T02:54:47.137Z,19.10
2019-01-30T02:57:16.854Z,19.00
2019-01-30T02:59:46.658Z,19.00
2019-01-30T03:02:21.511Z,19.10
2019-01-30T03:04:51.237Z,19.00
2019-01-30T03:07:20.999Z,19.00
2019-01-30T03:09:50.711Z,19.00
2019-01-30T03:12:20.638Z,19.00
2019-01-30T03:14:50.575Z,19.00
2019-01-30T03:17:20.389Z,18.70
2019-01-30T03:19:50.339Z,19.00
2019-01-30T03:22:20.144Z,18.50
2019-01-30T03:24:50.092Z,18.90
2019-01-30T03:27:19.819Z,18.90
2019-01-30T03:29:49.582Z,19.00
2019-01-30T03:32:19.359Z,19.00
2019-01-30T03:34:49.304Z,18.90
2019-01-30T03:37:19.125Z,18.80
2019-01-30T03:39:48.946Z,19.00
2019-01-30T03:42:18.501Z,18.90
2019-01-30T03:44:48.409Z,18.90
2019-01-30T03:47:18.025Z,18.90
2019-01-30T03:49:47.859Z,18.90
2019-01-30T03:52:17.422Z,18.90
2019-01-30T03:54:47.330Z,18.90
2019-01-30T03:57:17.149Z,18.90
2019-01-30T03:59:46.980Z,19.10
2019-01-30T04:02:16.700Z,19.00
2019-01-30T04:04:46.548Z,19.00
2019-01-30T04:07:16.057Z,18.80
2019-01-30T04:09:46.039Z,18.80
2019-01-30T04:12:15.713Z,18.90
2019-01-30T04:14:45.654Z,18.90
2019-01-30T04:17:15.392Z,18.40
2019-01-30T04:19:45.098Z,18.90
2019-01-30T04:22:14.841Z,18.90
2019-01-30T04:24:44.574Z,18.90
2019-01-30T04:27:14.177Z,19.00
2019-01-30T04:29:44.126Z,18.90
2019-01-30T04:32:13.758Z,19.50
2019-01-30T04:34:44.025Z,19.00
2019-01-30T04:37:13.505Z,19.10
2019-01-30T04:39:43.541Z,19.00
2019-01-30T04:42:13.248Z,19.00
2019-01-30T04:44:42.683Z,19.10
2019-01-30T04:47:12.500Z,19.10
2019-01-30T04:49:42.473Z,19.20
2019-01-30T04:52:12.252Z,18.80
2019-01-30T04:54:41.879Z,19.00
2019-01-30T04:57:11.519Z,19.20
2019-01-30T04:59:41.337Z,19.30
2019-01-30T05:02:11.072Z,19.80
2019-01-30T05:04:40.902Z,20.40
2019-01-30T05:07:12.447Z,20.40
2019-01-30T05:09:42.279Z,21.80
2019-01-30T05:12:11.957Z,21.30
2019-01-30T05:14:41.764Z,21.10
2019-01-30T05:17:11.688Z,21.10
2019-01-30T05:19:41.534Z,20.60
2019-01-30T05:22:11.349Z,20.10
2019-01-30T05:24:41.173Z,20.60
2019-01-30T05:27:10.998Z,21.00
2019-01-30T05:29:40.746Z,20.70
2019-01-30T05:32:10.665Z,20.70
2019-01-30T05:34:40.508Z,20.70
2019-01-30T05:37:10.418Z,20.60
2019-01-30T05:39:40.030Z,20.60
2019-01-30T05:42:09.775Z,20.50
2019-01-30T05:44:39.714Z,20.50
2019-01-30T05:47:09.655Z,20.50
2019-01-30T05:49:39.355Z,20.50
2019-01-30T05:52:09.120Z,20.40
2019-01-30T05:54:38.924Z,20.30
2019-01-30T05:57:08.434Z,20.30
2019-01-30T05:59:39.094Z,20.30
2019-01-30T06:02:12.059Z,20.30
2019-01-30T06:04:40.401Z,20.30
2019-01-30T06:07:10.216Z,20.20
2019-01-30T06:09:39.956Z,20.20
2019-01-30T06:12:09.873Z,20.20
2019-01-30T06:14:39.436Z,20.20
2019-01-30T06:17:09.751Z,19.80
2019-01-30T06:19:39.464Z,20.10
2019-01-30T06:22:09.091Z,20.10
2019-01-30T06:24:38.837Z,20.00
2019-01-30T06:27:09.452Z,20.10
2019-01-30T06:29:39.095Z,20.10
2019-01-30T06:32:08.951Z,20.00
2019-01-30T06:34:38.654Z,20.30
2019-01-30T06:37:08.469Z,20.00
2019-01-30T06:39:38.408Z,20.00
2019-01-30T06:42:08.129Z,19.90
2019-01-30T06:44:37.968Z,19.70
2019-01-30T06:47:07.682Z,19.90
2019-01-30T06:49:37.652Z,19.90
2019-01-30T06:52:07.469Z,19.80
2019-01-30T06:54:37.321Z,19.80
2019-01-30T06:57:07.118Z,19.80
2019-01-30T06:59:36.921Z,19.80
2019-01-30T07:02:06.685Z,19.80
2019-01-30T07:04:36.476Z,20.30
2019-01-30T07:07:06.032Z,19.80
2019-01-30T07:09:35.826Z,19.70
2019-01-30T07:12:05.468Z,19.80
2019-01-30T07:14:36.099Z,19.70
2019-01-30T07:17:05.985Z,19.80
2019-01-30T07:19:35.665Z,19.70
2019-01-30T07:22:05.497Z,19.70
2019-01-30T07:24:35.261Z,19.70
2019-01-30T07:27:05.059Z,19.70
2019-01-30T07:29:36.545Z,19.60
2019-01-30T07:32:06.454Z,19.70
2019-01-30T07:34:36.325Z,19.70
2019-01-30T07:37:06.121Z,19.70
2019-01-30T07:39:35.949Z,19.70
2019-01-30T07:42:05.676Z,19.60
2019-01-30T07:44:35.510Z,19.20
2019-01-30T07:47:05.141Z,19.70
2019-01-30T07:49:34.851Z,19.70
2019-01-30T07:52:04.670Z,19.70
2019-01-30T07:54:34.516Z,19.50
2019-01-30T07:57:04.368Z,20.20
2019-01-30T07:59:34.085Z,19.70
2019-01-30T08:02:03.822Z,19.70
2019-01-30T08:04:33.525Z,19.70
2019-01-30T08:07:03.263Z,19.70
2019-01-30T08:09:33.093Z,19.70
2019-01-30T08:12:02.818Z,19.60
2019-01-30T08:14:32.745Z,19.70
2019-01-30T08:17:02.777Z,19.60
2019-01-30T08:19:32.508Z,20.20
2019-01-30T08:22:02.232Z,19.60
2019-01-30T08:24:32.506Z,19.70
2019-01-30T08:27:02.688Z,19.70
2019-01-30T08:29:32.921Z,19.50
2019-01-30T08:32:03.192Z,19.60
2019-01-30T08:34:32.807Z,19.60
2019-01-30T08:37:02.663Z,19.60
2019-01-30T08:39:32.361Z,19.60
2019-01-30T08:42:01.990Z,19.50
2019-01-30T08:44:31.825Z,19.50
2019-01-30T08:47:01.653Z,19.60
2019-01-30T08:49:31.488Z,19.60
2019-01-30T08:52:01.452Z,19.50
2019-01-30T08:54:31.127Z,19.50
2019-01-30T08:57:00.869Z,19.50
2019-01-30T08:59:30.564Z,19.50
2019-01-30T09:02:00.331Z,19.50
2019-01-30T09:04:30.059Z,19.50
2019-01-30T09:06:59.869Z,19.70
2019-01-30T09:09:29.587Z,20.00
2019-01-30T09:11:59.439Z,20.20
2019-01-30T09:14:29.154Z,20.60
2019-01-30T09:16:58.897Z,21.30
2019-01-30T09:19:28.729Z,21.10
2019-01-30T09:21:58.541Z,20.90
2019-01-30T09:24:28.325Z,21.10
2019-01-30T09:26:59.005Z,21.20
2019-01-30T09:29:28.642Z,21.20
2019-01-30T09:31:58.581Z,21.20
2019-01-30T09:34:28.513Z,21.50
2019-01-30T09:36:58.177Z,21.80
2019-01-30T09:39:28.073Z,21.30
2019-01-30T09:41:58.066Z,21.20
2019-01-30T09:44:27.820Z,21.30
2019-01-30T09:46:57.666Z,21.20
2019-01-30T09:49:27.476Z,21.20
2019-01-30T09:51:57.122Z,21.20
2019-01-30T09:54:26.847Z,21.10
2019-01-30T09:56:56.721Z,21.20
2019-01-30T09:59:26.304Z,21.10
2019-01-30T10:01:56.020Z,21.20
2019-01-30T10:04:25.965Z,21.30
2019-01-30T10:06:55.869Z,21.40
2019-01-30T10:09:25.861Z,21.10
2019-01-30T10:11:55.644Z,21.00
2019-01-30T10:14:25.396Z,21.00
2019-01-30T10:16:55.315Z,21.60
2019-01-30T10:19:25.120Z,21.10
2019-01-30T10:21:54.974Z,21.10
2019-01-30T10:24:24.690Z,21.10
2019-01-30T10:26:54.630Z,21.30
2019-01-30T10:29:24.444Z,21.30
2019-01-30T10:31:54.125Z,21.10
2019-01-30T10:34:23.997Z,21.10
2019-01-30T10:36:53.754Z,21.10
2019-01-30T10:39:23.591Z,21.20
2019-01-30T10:41:53.381Z,21.30
2019-01-30T10:44:23.336Z,21.10
2019-01-30T10:46:53.135Z,21.10
2019-01-30T10:49:22.999Z,21.10
2019-01-30T10:51:53.909Z,20.90
2019-01-30T10:54:23.692Z,20.90
2019-01-30T10:56:53.392Z,20.80
2019-01-30T10:59:23.125Z,20.80
2019-01-30T11:01:52.860Z,20.80
2019-01-30T11:04:23.586Z,20.80
2019-01-30T11:06:53.334Z,20.80
2019-01-30T11:09:24.760Z,20.80
2019-01-30T11:11:54.655Z,20.90
2019-01-30T11:14:24.180Z,20.90
2019-01-30T11:16:53.986Z,20.80
2019-01-30T11:19:23.820Z,20.80
2019-01-30T11:21:53.729Z,20.80
2019-01-30T11:24:23.478Z,20.80
2019-01-30T11:26:53.188Z,20.70
2019-01-30T11:29:24.728Z,20.80
2019-01-30T11:31:54.377Z,20.70
2019-01-30T11:34:24.229Z,20.60
2019-01-30T11:36:54.017Z,21.20
2019-01-30T11:39:23.922Z,20.60
2019-01-30T11:41:53.688Z,20.50
2019-01-30T11:44:23.539Z,20.50
2019-01-30T11:46:53.249Z,20.50
2019-01-30T11:49:23.083Z,20.50
2019-01-30T11:51:52.945Z,20.50
2019-01-30T11:54:22.727Z,20.50
2019-01-30T11:56:52.584Z,20.40
2019-01-30T11:59:22.393Z,20.30
2019-01-30T12:01:51.952Z,20.30
2019-01-30T12:04:21.767Z,20.30
2019-01-30T12:06:51.679Z,20.30
2019-01-30T12:09:21.609Z,20.40
2019-01-30T12:11:51.432Z,20.20
2019-01-30T12:14:21.387Z,20.20
2019-01-30T12:16:51.217Z,20.20
2019-01-30T12:19:21.027Z,20.30
2019-01-30T12:21:50.647Z,20.30
2019-01-30T12:24:20.501Z,20.20
2019-01-30T12:26:50.309Z,20.20
2019-01-30T12:29:20.185Z,20.20
2019-01-30T12:31:49.987Z,20.20
2019-01-30T12:34:28.146Z,20.10
2019-01-30T12:36:51.185Z,20.10
2019-01-30T12:39:21.111Z,19.60
2019-01-30T12:41:50.945Z,20.20
2019-01-30T12:44:20.674Z,20.10
2019-01-30T12:46:50.279Z,20.10
2019-01-30T12:49:20.109Z,20.00
2019-01-30T12:51:49.972Z,20.00
2019-01-30T12:54:19.769Z,20.50
2019-01-30T12:56:49.285Z,20.00
2019-01-30T12:59:19.128Z,20.50
2019-01-30T13:01:48.944Z,19.90
2019-01-30T13:04:18.780Z,20.00
2019-01-30T13:06:48.702Z,20.30
2019-01-30T13:09:18.343Z,20.00
2019-01-30T13:11:48.266Z,19.90
2019-01-30T13:14:17.998Z,20.20
2019-01-30T13:16:47.934Z,19.90
2019-01-30T13:19:17.770Z,20.00
2019-01-30T13:21:47.702Z,20.00
2019-01-30T13:24:19.115Z,20.20
2019-01-30T13:26:48.883Z,20.10
2019-01-30T13:29:18.820Z,20.10
2019-01-30T13:31:48.476Z,20.10
2019-01-30T13:34:19.979Z,20.10
2019-01-30T13:36:49.734Z,20.00
2019-01-30T13:39:19.694Z,20.00
2019-01-30T13:41:49.517Z,19.80
2019-01-30T13:44:19.441Z,20.00
2019-01-30T13:46:49.371Z,20.00
2019-01-30T13:49:18.998Z,20.00
2019-01-30T13:51:48.912Z,20.00
2019-01-30T13:54:18.661Z,20.00
2019-01-30T13:56:49.416Z,20.20
2019-01-30T13:59:19.144Z,20.00
2019-01-30T14:01:48.934Z,20.00
2019-01-30T14:04:18.776Z,20.00
2019-01-30T14:06:48.423Z,20.00
2019-01-30T14:09:19.944Z,20.10
2019-01-30T14:11:49.611Z,20.10
2019-01-30T14:14:19.443Z,20.00
2019-01-30T14:16:49.173Z,20.00
2019-01-30T14:19:19.102Z,20.60
2019-01-30T14:21:48.858Z,20.00
2019-01-30T14:24:18.568Z,20.00
2019-01-30T14:29:16.556Z,20.10
2019-01-30T14:31:46.268Z,20.10
2019-01-30T14:34:16.128Z,20.20
2019-01-30T14:36:45.851Z,20.20
2019-01-30T14:39:15.673Z,20.30
2019-01-30T14:41:45.378Z,20.30
2019-01-30T14:44:15.137Z,20.30
2019-01-30T14:46:44.950Z,20.20
2019-01-30T14:49:14.924Z,20.30
2019-01-30T14:51:44.715Z,20.30
2019-01-30T14:54:14.585Z,20.20
2019-01-30T14:56:44.332Z,20.30
2019-01-30T14:59:14.203Z,20.30
2019-01-30T15:01:44.137Z,20.30
2019-01-30T15:04:13.997Z,21.00
2019-01-30T15:06:44.172Z,20.00
2019-01-30T15:09:13.930Z,20.40
2019-01-30T15:11:43.791Z,20.50
2019-01-30T15:14:13.627Z,20.40
2019-01-30T15:16:43.516Z,20.40
2019-01-30T15:19:13.371Z,20.40
2019-01-30T15:21:42.999Z,20.40
2019-01-30T15:24:12.929Z,20.50
2019-01-30T15:26:42.723Z,20.10
2019-01-30T15:29:12.572Z,20.50
2019-01-30T15:31:42.493Z,20.40
2019-01-30T15:34:12.363Z,20.50
2019-01-30T15:36:42.150Z,20.50
2019-01-30T15:39:11.789Z,20.50
2019-01-30T15:41:41.514Z,20.50
2019-01-30T15:44:11.336Z,20.50
2019-01-30T15:46:41.165Z,20.60
2019-01-30T15:49:11.089Z,20.50
2019-01-30T15:51:41.062Z,20.50
2019-01-30T15:54:10.762Z,20.50
2019-01-30T15:56:40.686Z,20.50
2019-01-30T15:59:11.645Z,20.50
2019-01-30T16:01:45.954Z,20.40
2019-01-30T16:04:17.539Z,20.50
2019-01-30T16:06:47.180Z,20.30
2019-01-30T16:09:16.993Z,20.60
2019-01-30T16:11:46.615Z,20.30
2019-01-30T16:14:16.872Z,20.60
2019-01-30T16:16:46.689Z,20.30
2019-01-30T16:19:16.511Z,20.30
2019-01-30T16:21:46.363Z,20.20
2019-01-30T16:24:16.168Z,20.10
2019-01-30T16:26:46.126Z,20.20
2019-01-30T16:29:15.801Z,20.10
2019-01-30T16:31:45.590Z,20.10
2019-01-30T16:34:16.590Z,20.10
2019-01-30T16:36:46.248Z,20.20
2019-01-30T16:39:16.078Z,21.30
2019-01-30T16:41:45.948Z,21.60
2019-01-30T16:44:15.618Z,21.50
2019-01-30T16:46:45.257Z,21.50
2019-01-30T16:49:15.096Z,21.60
2019-01-30T16:51:44.713Z,22.70
2019-01-30T16:54:14.644Z,22.50
2019-01-30T16:56:46.783Z,22.70
2019-01-30T16:59:17.566Z,22.40
2019-01-30T17:01:47.222Z,22.40
2019-01-30T17:04:16.969Z,22.40
2019-01-30T17:06:46.764Z,22.50
2019-01-30T17:09:16.569Z,22.50
2019-01-30T17:11:46.423Z,22.80
2019-01-30T17:14:16.240Z,23.30
2019-01-30T17:16:46.079Z,22.80
2019-01-30T17:19:16.005Z,23.30
2019-01-30T17:21:45.781Z,23.10
2019-01-30T17:24:15.676Z,22.90
2019-01-30T17:26:45.501Z,22.90
2019-01-30T17:29:16.916Z,22.50
2019-01-30T17:31:46.681Z,23.20
2019-01-30T17:34:16.533Z,23.00
2019-01-30T17:36:46.359Z,22.90
2019-01-30T17:39:15.986Z,22.90
2019-01-30T17:41:45.868Z,23.00
2019-01-30T17:44:15.672Z,23.00
2019-01-30T17:46:45.469Z,23.00
2019-01-30T17:49:15.354Z,23.00
2019-01-30T17:51:45.373Z,23.00
2019-01-30T17:54:18.126Z,22.90
2019-01-30T17:56:46.517Z,23.40
2019-01-30T17:59:16.344Z,23.50
2019-01-30T18:01:46.306Z,22.90
2019-01-30T18:04:16.218Z,23.50
2019-01-30T18:06:47.350Z,23.10
2019-01-30T18:09:16.997Z,23.20
2019-01-30T18:11:46.866Z,23.00
2019-01-30T18:14:16.567Z,22.90
2019-01-30T18:16:46.490Z,22.90
2019-01-30T18:19:16.315Z,23.10
2019-01-30T18:21:46.227Z,23.00
2019-01-30T18:24:16.097Z,22.70
2019-01-30T18:26:45.908Z,22.70
2019-01-30T18:29:15.749Z,22.90
2019-01-30T18:31:45.375Z,23.10
2019-01-30T18:34:15.199Z,23.60
2019-01-30T18:36:45.024Z,24.70
2019-01-30T18:39:14.573Z,22.70
2019-01-30T18:41:44.283Z,22.00
2019-01-30T18:44:14.194Z,22.70
2019-01-30T18:46:43.931Z,22.20
2019-01-30T18:49:13.751Z,22.80
2019-01-30T18:51:43.372Z,22.70
2019-01-30T18:54:13.197Z,23.30
2019-01-30T18:56:42.939Z,23.10
2019-01-30T18:59:12.814Z,23.60
2019-01-30T19:01:42.429Z,23.80
2019-01-30T19:04:12.325Z,24.10
2019-01-30T19:06:52.072Z,23.90
2019-01-30T19:09:13.427Z,23.90
2019-01-30T19:11:43.349Z,24.20
2019-01-30T19:14:13.197Z,24.00
2019-01-30T19:16:44.668Z,24.10
2019-01-30T19:19:14.582Z,24.10
2019-01-30T19:21:44.523Z,24.30
2019-01-30T19:24:14.261Z,24.40
2019-01-30T19:26:43.953Z,24.50
2019-01-30T19:29:14.817Z,24.20
2019-01-30T19:31:44.550Z,24.40
2019-01-30T19:34:14.479Z,24.60
2019-01-30T19:36:44.303Z,24.40
2019-01-30T19:39:15.271Z,24.40
2019-01-30T19:41:44.953Z,24.50
2019-01-30T19:44:14.597Z,24.50
2019-01-30T19:46:44.452Z,24.40
2019-01-30T19:49:14.290Z,24.50
2019-01-30T19:51:44.087Z,24.30
2019-01-30T19:54:13.944Z,24.40
2019-01-30T19:56:43.752Z,24.30
2019-01-30T19:59:17.706Z,24.20
2019-01-30T20:01:45.166Z,24.10
2019-01-30T20:04:14.899Z,24.20
2019-01-30T20:06:44.601Z,24.10
2019-01-30T20:09:18.843Z,24.00
2019-01-30T20:11:48.675Z,24.00
2019-01-30T20:14:18.283Z,24.30
2019-01-30T20:16:48.225Z,24.30
2019-01-30T20:19:18.059Z,24.60
2019-01-30T20:21:47.813Z,24.40
2019-01-30T20:24:17.641Z,23.70
2019-01-30T20:26:47.465Z,23.60
2019-01-30T20:29:17.349Z,23.50
2019-01-30T20:31:47.028Z,23.40
2019-01-30T20:34:16.619Z,23.50
2019-01-30T20:36:46.455Z,23.40
2019-01-30T20:39:16.084Z,22.90
2019-01-30T20:41:45.996Z,22.80
2019-01-30T20:44:15.734Z,22.70
2019-01-30T20:46:45.657Z,23.20
2019-01-30T20:49:15.295Z,22.60
2019-01-30T20:51:44.921Z,22.60
2019-01-30T20:54:14.545Z,22.50
2019-01-30T20:56:44.360Z,22.50
2019-01-30T20:59:14.193Z,22.50
2019-01-30T21:01:44.161Z,22.40
2019-01-30T21:04:14.030Z,22.40
2019-01-30T21:06:43.817Z,22.40
2019-01-30T21:09:13.513Z,22.40
2019-01-30T21:11:43.177Z,22.20
2019-01-30T21:14:12.648Z,22.30
2019-01-30T21:16:42.300Z,22.20
2019-01-30T21:19:12.225Z,22.10
2019-01-30T21:21:42.067Z,22.70
2019-01-30T21:24:11.879Z,22.20
2019-01-30T21:26:41.695Z,22.10
2019-01-30T21:29:11.444Z,22.10
2019-01-30T21:31:42.859Z,22.00
2019-01-30T21:34:12.634Z,22.00
2019-01-30T21:36:42.445Z,22.00
2019-01-30T21:39:12.434Z,22.00
2019-01-30T21:41:43.047Z,21.90
2019-01-30T21:44:12.651Z,21.90
2019-01-30T21:46:42.377Z,21.90
2019-01-30T21:49:12.308Z,21.80
2019-01-30T21:51:42.043Z,21.80
2019-01-30T21:54:12.955Z,21.80
2019-01-30T21:56:42.815Z,21.80
2019-01-30T21:59:12.462Z,21.70
2019-01-30T22:01:42.306Z,21.70
2019-01-30T22:04:11.912Z,21.70
2019-01-30T22:06:41.533Z,21.60
2019-01-30T22:09:11.362Z,21.70
2019-01-30T22:11:41.296Z,21.60
2019-01-30T22:14:11.131Z,21.20
2019-01-30T22:16:40.746Z,21.50
2019-01-30T22:19:10.560Z,21.50
2019-01-30T22:21:40.407Z,21.40
2019-01-30T22:24:10.134Z,21.30
2019-01-30T22:26:39.843Z,21.40
2019-01-30T22:29:09.474Z,21.70
2019-01-30T22:31:39.534Z,21.30
2019-01-30T22:34:09.243Z,21.30
2019-01-30T22:36:38.995Z,21.30
2019-01-30T22:39:09.514Z,21.30
2019-01-30T22:41:39.178Z,21.30
2019-01-30T22:44:09.858Z,21.70
2019-01-30T22:46:39.527Z,21.30
2019-01-30T22:49:09.339Z,21.30
2019-01-30T22:51:39.292Z,21.40
2019-01-30T22:54:09.118Z,21.30
2019-01-30T22:56:39.035Z,21.30
2019-01-30T22:59:08.556Z,21.40
2019-01-30T23:01:50.257Z,21.30
2019-01-30T23:04:53.571Z,21.20
2019-01-30T23:08:02.077Z,21.30
2019-01-30T23:11:08.040Z,21.30
2019-01-30T23:13:58.734Z,21.30
2019-01-30T23:17:21.503Z,21.30
2019-01-30T23:20:14.849Z,21.20
2019-01-30T23:23:27.567Z,21.20
2019-01-30T23:26:37.091Z,21.30
2019-01-30T23:29:45.629Z,21.20
2019-01-30T23:32:32.551Z,21.20
2019-01-30T23:35:46.375Z,21.20
2019-01-30T23:38:51.404Z,21.20
2019-01-30T23:41:46.084Z,21.20
2019-01-30T23:44:49.405Z,21.20
2019-01-30T23:47:41.740Z,21.10
2019-01-30T23:50:58.284Z,21.20
2019-01-30T23:54:06.114Z,21.40
2019-01-30T23:56:56.131Z,21.10
